Time;durP1;ratioP1;P1;durP2;ratioP2;P2;SDS_P1;SDS_P2;PMS_P1;PMS_P2;Temp;Humidity;BMP_temperature;BMP_pressure;BME280_temperature;BME280_humidity;BME280_pressure;Samples;Min_cycle;Max_cycle;Signal;HPM_P1;HPM_P2
2022/11/02 05:58:01;;;;;;;10.25;3.03;;;;;;;10.17;82.03;100538.00;1086166;47;20035;-83
2022/11/02 05:59:02;;;;;;;9.73;3.08;;;;;;;10.19;82.33;100538.72;1087587;54;20034;-84
2022/11/02 06:00:10;;;;;;;8.98;2.92;;;;;;;10.24;81.94;100541.84;1087609;54;20030;-84
2022/11/02 06:01:12;;;;;;;9.43;2.85;;;;;;;10.22;82.06;100538.44;1087600;54;20070;-85
2022/11/02 06:02:16;;;;;;;6.13;2.50;;;;;;;10.32;81.71;100546.53;1088234;46;20025;-84
2022/11/02 06:03:18;;;;;;;7.22;2.30;;;;;;;10.34;81.79;100558.78;1087571;54;20035;-88
2022/11/02 06:04:22;;;;;;;7.28;2.90;;;;;;;10.37;81.57;100555.00;1088470;46;20019;-84
2022/11/02 06:05:24;;;;;;;6.82;2.22;;;;;;;10.36;81.53;100554.16;1087661;54;20721;-83
2022/11/02 06:06:28;;;;;;;6.95;2.60;;;;;;;10.58;80.81;100550.53;1087511;54;20816;-85
2022/11/02 06:07:30;;;;;;;4.60;1.92;;;;;;;10.71;80.13;100555.66;1087523;54;20018;-83
2022/11/02 06:08:35;;;;;;;5.38;2.42;;;;;;;10.73;80.29;100550.16;1087571;54;20026;-84
2022/11/02 06:09:36;;;;;;;4.95;2.10;;;;;;;10.68;80.35;100550.56;1087730;54;20053;-85
2022/11/02 06:10:41;;;;;;;7.43;2.25;;;;;;;10.75;80.02;100554.41;1087661;54;20081;-84
2022/11/02 06:11:45;;;;;;;7.40;2.55;;;;;;;10.71;80.06;100547.63;1094142;39;20194;-85
2022/11/02 06:12:53;;;;;;;7.88;2.58;;;;;;;10.81;79.67;100542.34;1087820;46;20030;-86
2022/11/02 06:14:02;;;;;;;7.32;2.33;;;;;;;10.95;79.41;100556.31;1087563;54;20026;-83
2022/11/02 06:15:04;;;;;;;9.50;2.85;;;;;;;10.92;79.68;100554.75;1089284;46;20038;-85
2022/11/02 06:16:10;;;;;;;5.93;2.15;;;;;;;10.96;79.57;100566.03;1088157;46;20030;-84
2022/11/02 06:17:12;;;;;;;6.82;2.05;;;;;;;11.00;79.31;100557.59;1087483;54;20098;-84
2022/11/02 06:18:16;;;;;;;5.80;2.50;;;;;;;10.99;79.50;100568.44;1087300;54;20037;-84
2022/11/02 06:19:17;;;;;;;5.15;1.80;;;;;;;11.02;79.44;100563.66;1087662;54;20034;-83
2022/11/02 06:20:24;;;;;;;10.05;3.17;;;;;;;11.07;79.04;100561.44;1087619;54;20753;-83
2022/11/02 06:21:25;;;;;;;7.97;2.15;;;;;;;11.06;78.96;100554.38;1087545;54;20061;-83
2022/11/02 06:24:08;;;;;;;6.30;2.90;;;;;;;11.11;79.43;100561.16;1087491;54;20030;-86
2022/11/02 06:25:10;;;;;;;7.82;3.08;;;;;;;11.20;78.80;100560.34;1087589;54;20034;-83
2022/11/02 06:26:14;;;;;;;7.63;3.03;;;;;;;11.28;78.71;100567.69;1087561;54;20090;-82
2022/11/02 06:27:16;;;;;;;6.60;3.05;;;;;;;11.13;78.87;100567.22;1087584;54;20393;-83
2022/11/02 06:28:20;;;;;;;12.20;2.78;;;;;;;11.20;78.65;100566.53;1087504;54;20041;-82
2022/11/02 06:29:27;;;;;;;7.80;2.85;;;;;;;11.25;78.91;100563.44;1087823;46;20697;-83
2022/11/02 06:30:28;;;;;;;9.52;3.42;;;;;;;11.12;79.09;100574.41;1087608;54;20022;-83
2022/11/02 06:31:32;;;;;;;5.97;2.45;;;;;;;11.15;78.89;100570.59;1087547;54;20081;-81
2022/11/02 06:32:34;;;;;;;6.03;2.30;;;;;;;11.26;78.91;100569.66;1087598;54;20061;-85
2022/11/02 06:33:38;;;;;;;7.78;2.67;;;;;;;11.30;78.66;100574.59;1087491;54;20086;-85
2022/11/02 06:34:40;;;;;;;6.53;2.25;;;;;;;11.33;78.32;100571.66;1087648;54;20034;-84
2022/11/02 06:35:46;;;;;;;8.07;2.53;;;;;;;11.36;78.16;100576.72;1087669;54;20140;-86
2022/11/02 06:36:48;;;;;;;6.20;2.28;;;;;;;11.29;78.20;100580.09;1087495;54;20034;-83
2022/11/02 06:37:52;;;;;;;8.52;2.42;;;;;;;11.36;78.09;100584.75;1087536;54;20031;-84
2022/11/02 06:38:53;;;;;;;9.70;3.30;;;;;;;11.14;78.56;100590.34;1090453;39;20221;-83
2022/11/02 06:39:58;;;;;;;7.47;3.00;;;;;;;11.31;78.21;100597.72;1087593;46;20453;-85
2022/11/02 06:41:02;;;;;;;7.50;3.28;;;;;;;11.27;78.48;100595.44;1087573;54;20042;-85
2022/11/02 06:42:06;;;;;;;7.28;3.90;;;;;;;11.27;78.21;100598.94;1087492;54;20106;-86
2022/11/02 06:43:08;;;;;;;8.70;3.50;;;;;;;11.33;78.29;100585.06;1087456;54;20061;-86
2022/11/02 06:44:12;;;;;;;10.63;3.15;;;;;;;11.27;78.67;100593.59;1089276;46;20030;-84
2022/11/02 06:45:16;;;;;;;6.85;2.33;;;;;;;11.47;77.91;100588.31;1087582;54;20046;-85
2022/11/02 06:46:20;;;;;;;7.93;2.92;;;;;;;11.35;78.61;100588.41;1087415;54;20065;-84
2022/11/02 06:47:22;;;;;;;8.18;2.28;;;;;;;11.36;78.91;100590.09;1087483;54;20041;-85
2022/11/02 06:48:27;;;;;;;7.45;2.95;;;;;;;11.36;79.14;100597.31;1087654;46;20041;-84
2022/11/02 06:49:28;;;;;;;5.60;1.98;;;;;;;11.49;78.79;100597.06;1087568;54;20031;-84
2022/11/02 06:50:32;;;;;;;6.85;2.70;;;;;;;11.55;78.61;100596.50;1087187;54;20031;-83
2022/11/02 06:51:36;;;;;;;7.65;2.13;;;;;;;11.57;78.78;100596.38;1089559;39;20641;-85
2022/11/02 06:52:42;;;;;;;6.95;2.45;;;;;;;11.65;78.67;100594.69;1087588;54;20038;-84
2022/11/02 06:53:46;;;;;;;7.75;2.83;;;;;;;11.68;78.71;100597.09;1089494;46;20027;-84
2022/11/02 06:54:48;;;;;;;6.32;2.17;;;;;;;11.61;79.00;100612.03;1087493;54;20061;-84
2022/11/02 06:55:56;;;;;;;6.63;2.10;;;;;;;11.64;79.13;100603.69;1089079;39;20658;-84
2022/11/02 06:56:57;;;;;;;6.00;2.38;;;;;;;11.63;79.07;100612.72;1087373;54;20038;-84
2022/11/02 06:58:02;;;;;;;10.35;2.78;;;;;;;11.48;80.41;100617.59;1087397;54;20034;-84
2022/11/02 06:59:03;;;;;;;7.97;2.05;;;;;;;11.60;80.22;100607.66;1087505;54;20034;-85
2022/11/02 07:00:11;;;;;;;11.10;2.25;;;;;;;11.53;80.69;100617.19;1088355;46;20035;-84
2022/11/02 07:01:18;;;;;;;6.75;2.05;;;;;;;11.65;80.66;100616.09;1089424;39;20681;-85
2022/11/02 07:02:20;;;;;;;7.93;1.88;;;;;;;11.79;79.88;100619.38;1087724;46;21075;-83
2022/11/02 07:03:25;;;;;;;6.07;1.73;;;;;;;11.82;79.89;100619.09;1087508;54;20037;-85
2022/11/02 07:04:26;;;;;;;5.85;1.75;;;;;;;11.89;79.85;100628.28;1087520;54;20046;-84
2022/11/02 07:05:30;;;;;;;5.30;1.60;;;;;;;11.97;79.36;100623.09;1087431;54;20027;-83
2022/11/02 07:06:34;;;;;;;5.35;1.73;;;;;;;11.96;79.49;100626.72;1087351;54;20053;-84
2022/11/02 07:07:36;;;;;;;7.18;1.67;;;;;;;12.01;79.41;100624.50;1089938;39;20334;-86
2022/11/02 07:08:41;;;;;;;6.75;2.05;;;;;;;11.99;79.79;100626.50;1087461;54;20045;-85
2022/11/02 07:09:42;;;;;;;6.10;1.42;;;;;;;12.07;79.49;100632.97;1087530;54;20042;-85
2022/11/02 07:10:46;;;;;;;6.95;2.17;;;;;;;11.99;80.10;100631.00;1087456;54;20037;-86
2022/11/02 07:11:50;;;;;;;6.32;1.70;;;;;;;12.14;79.78;100632.25;1087495;54;20042;-83
2022/11/02 07:12:53;;;;;;;7.00;1.63;;;;;;;12.15;79.49;100642.00;1087470;54;20096;-83
2022/11/02 07:13:57;;;;;;;6.00;1.85;;;;;;;12.21;79.32;100634.41;1087507;54;20041;-83
2022/11/02 07:14:59;;;;;;;6.28;1.92;;;;;;;12.19;79.44;100639.03;1091482;39;20807;-83
2022/11/02 07:16:03;;;;;;;7.55;1.77;;;;;;;12.07;79.89;100639.16;1087914;39;20665;-86
2022/11/02 07:17:07;;;;;;;5.55;1.70;;;;;;;12.24;79.57;100639.44;1087400;54;20031;-82
2022/11/02 07:18:11;;;;;;;9.32;2.40;;;;;;;12.04;80.47;100638.63;1087304;54;20030;-85
2022/11/02 07:19:13;;;;;;;7.10;2.00;;;;;;;11.99;80.79;100642.56;1087494;54;20030;-84
2022/11/02 07:20:18;;;;;;;5.93;1.88;;;;;;;12.08;80.43;100645.41;1087978;39;20670;-83
2022/11/02 07:21:19;;;;;;;8.18;2.20;;;;;;;12.07;80.71;100638.34;1089398;46;20038;-81
2022/11/02 07:22:23;;;;;;;10.02;2.15;;;;;;;12.02;80.51;100642.28;1087395;54;20038;-81
2022/11/02 07:23:25;;;;;;;8.27;1.42;;;;;;;12.04;80.45;100649.31;1087445;54;20161;-82
2022/11/02 07:24:29;;;;;;;10.18;3.00;;;;;;;12.03;80.83;100643.13;1087420;54;20036;-85
2022/11/02 07:25:32;;;;;;;15.88;3.97;;;;;;;12.11;80.49;100647.78;1087513;54;20428;-83
2022/11/02 07:26:36;;;;;;;19.88;3.58;;;;;;;12.05;80.64;100635.78;1087403;54;20073;-81
2022/11/02 07:27:38;;;;;;;11.80;2.90;;;;;;;12.18;80.33;100646.25;1087308;54;20034;-82
2022/11/02 07:28:43;;;;;;;11.80;2.53;;;;;;;12.01;80.86;100643.25;1087463;54;20034;-82
2022/11/02 07:40:59;;;;;;;8.20;2.45;;;;;;;12.05;79.95;100648.34;1087123;54;20042;-82
2022/11/02 07:44:50;;;;;;;10.30;2.22;;;;;;;12.14;80.02;100648.34;1088282;46;20034;-81
2022/11/02 07:45:55;;;;;;;5.85;1.80;;;;;;;12.18;79.95;100651.63;1087663;54;20030;-81
2022/11/02 07:47:00;;;;;;;6.80;2.10;;;;;;;12.25;79.55;100652.72;1089692;47;20031;-82
2022/11/02 07:48:04;;;;;;;7.18;2.08;;;;;;;12.41;79.09;100649.50;1088023;47;20030;-80
2022/11/02 07:49:08;;;;;;;6.82;1.55;;;;;;;12.41;78.94;100648.63;1095857;46;20034;-82
2022/11/02 07:50:13;;;;;;;6.53;1.80;;;;;;;12.44;78.73;100645.69;1087593;54;20034;-82
2022/11/02 07:51:15;;;;;;;8.60;2.42;;;;;;;12.26;79.32;100659.78;1087564;54;20019;-83
2022/11/02 07:52:19;;;;;;;12.40;2.38;;;;;;;12.27;79.43;100656.13;1087780;54;20038;-82
2022/11/02 07:53:21;;;;;;;9.82;2.47;;;;;;;12.38;79.32;100648.91;1087873;54;20014;-83
2022/11/02 07:54:25;;;;;;;6.30;1.95;;;;;;;12.33;79.29;100658.22;1090562;47;20106;-83
2022/11/02 07:55:28;;;;;;;7.22;2.75;;;;;;;12.45;78.82;100652.72;1089185;47;20034;-82
2022/11/02 07:56:35;;;;;;;6.53;2.22;;;;;;;12.52;78.45;100648.47;1089079;31;20712;-82
2022/11/02 07:57:36;;;;;;;7.65;2.13;;;;;;;12.51;78.72;100651.31;1087444;54;20031;-81
2022/11/02 07:58:40;;;;;;;7.97;2.08;;;;;;;12.41;78.92;100648.63;1087365;54;20037;-82
2022/11/02 08:01:27;;;;;;;8.38;2.55;;;;;;;12.57;78.11;100656.09;1091366;39;20356;-85
2022/11/02 08:02:28;;;;;;;5.68;1.83;;;;;;;12.55;78.65;100653.56;1087464;54;20034;-82
2022/11/02 08:03:39;;;;;;;11.05;2.70;;;;;;;12.50;78.53;100650.47;1087418;54;20037;-81
2022/11/02 08:04:44;;;;;;;10.10;2.55;;;;;;;12.43;78.89;100658.22;1087467;54;20042;-83
2022/11/02 08:05:49;;;;;;;7.25;2.92;;;;;;;12.52;78.94;100653.84;1087657;54;20054;-85
2022/11/02 08:06:53;;;;;;;9.27;3.10;;;;;;;12.61;78.29;100654.84;1089059;39;20920;-86
2022/11/02 08:08:08;;;;;;;10.43;4.00;;;;;;;12.69;77.90;100662.16;1087632;54;20035;-85
2022/11/02 08:09:13;;;;;;;10.48;4.25;;;;;;;12.86;77.47;100664.09;1087656;54;20015;-85
2022/11/02 08:14:05;;;;;;;11.30;2.75;;;;;;;12.59;77.82;100665.69;1087557;54;20035;-83
2022/11/02 08:15:10;;;;;;;8.05;2.47;;;;;;;12.71;77.44;100670.91;1087476;54;20094;-84
2022/11/02 08:16:48;;;;;;;8.82;2.13;;;;;;;12.75;76.77;100669.66;1087534;54;20071;-83
2022/11/02 08:18:37;;;;;;;7.82;2.13;;;;;;;12.77;76.83;100668.50;1087446;54;20035;-81
2022/11/02 08:19:46;;;;;;;7.38;2.53;;;;;;;12.85;76.47;100664.25;1087526;54;20138;-81
2022/11/02 08:20:54;;;;;;;8.30;2.25;;;;;;;12.87;76.71;100670.31;1087390;54;20037;-84
2022/11/02 08:21:58;;;;;;;8.27;2.17;;;;;;;12.89;76.35;100668.34;1087460;54;20031;-80
2022/11/02 08:23:00;;;;;;;9.05;1.98;;;;;;;13.00;75.97;100668.16;1087464;46;20061;-79
2022/11/02 08:24:04;;;;;;;7.95;2.13;;;;;;;13.04;75.49;100668.69;1087406;54;20086;-82
2022/11/02 08:25:07;;;;;;;7.95;2.50;;;;;;;13.00;75.19;100678.06;1087399;54;20844;-80
2022/11/02 08:26:11;;;;;;;6.75;1.95;;;;;;;13.18;74.85;100673.63;1087270;54;20045;-80
2022/11/02 08:27:12;;;;;;;7.50;2.42;;;;;;;13.13;74.55;100665.13;1087245;54;20061;-81
2022/11/02 08:28:19;;;;;;;7.97;2.03;;;;;;;13.15;74.32;100671.22;1087250;54;20022;-79
2022/11/02 08:29:23;;;;;;;9.13;2.75;;;;;;;13.19;73.45;100672.63;1087372;54;20057;-82
2022/11/02 08:30:35;;;;;;;6.88;1.95;;;;;;;13.17;74.00;100669.22;1087471;54;20019;-82
2022/11/02 08:32:28;;;;;;;6.80;2.10;;;;;;;13.16;72.49;100666.72;1089884;39;21146;-81
2022/11/02 08:35:17;;;;;;;10.32;2.10;;;;;;;13.09;72.78;100674.50;1087400;54;20100;-79
2022/11/02 08:36:21;;;;;;;8.35;2.03;;;;;;;13.14;72.41;100666.00;1087280;54;20035;-80
2022/11/02 08:37:22;;;;;;;9.77;2.35;;;;;;;13.11;71.88;100675.19;1087386;54;20034;-82
2022/11/02 08:38:26;;;;;;;8.95;2.08;;;;;;;13.15;72.27;100660.47;1087322;54;20030;-79
2022/11/02 08:39:28;;;;;;;8.30;2.50;;;;;;;13.29;71.76;100666.38;1087468;54;20039;-82
2022/11/02 08:40:33;;;;;;;8.15;1.83;;;;;;;13.52;71.41;100662.31;1087515;54;20042;-83
2022/11/02 08:41:37;;;;;;;8.15;2.22;;;;;;;13.54;71.42;100664.88;1087449;54;20297;-81
2022/11/02 08:42:38;;;;;;;8.23;1.95;;;;;;;13.47;71.14;100666.44;1087336;54;20057;-83
2022/11/02 08:43:43;;;;;;;5.90;2.00;;;;;;;13.41;71.37;100671.44;1087397;54;20159;-82
2022/11/02 08:44:47;;;;;;;5.75;2.22;;;;;;;13.40;71.06;100668.91;1087415;54;20034;-82
2022/11/02 08:47:12;;;;;;;;;;;;;;;13.58;70.61;100666.25;1087166;54;20041;-82
2022/11/02 08:50:09;;;;;;;10.40;2.50;;;;;;;13.56;70.58;100674.47;1087312;54;20034;-81
2022/11/02 08:51:13;;;;;;;10.52;2.20;;;;;;;13.55;70.47;100670.09;1087841;46;20037;-83
2022/11/02 08:52:15;;;;;;;9.50;2.53;;;;;;;13.53;70.27;100677.47;1087258;54;20057;-82
2022/11/02 08:53:22;;;;;;;7.88;2.20;;;;;;;13.46;70.08;100678.22;1087253;54;20117;-85
2022/11/02 08:54:24;;;;;;;7.68;1.88;;;;;;;13.53;69.97;100673.94;1088615;46;20030;-79
2022/11/02 08:55:28;;;;;;;8.40;2.13;;;;;;;13.62;69.71;100682.91;1087282;54;20027;-78
2022/11/02 08:56:32;;;;;;;12.27;2.80;;;;;;;13.52;69.28;100677.63;1087305;54;20050;-78
2022/11/02 09:11:54;;;;;;;8.65;2.15;;;;;;;14.04;67.77;100685.94;1087810;54;20007;-80
2022/11/02 09:26:31;;;;;;;11.02;2.50;;;;;;;14.18;67.52;100684.56;1088266;54;20019;-83
2022/11/02 09:27:35;;;;;;;7.47;2.08;;;;;;;14.11;67.32;100685.34;1087838;54;20128;-79
2022/11/02 09:28:39;;;;;;;7.65;2.05;;;;;;;14.12;67.29;100689.72;1087929;54;20079;-82
2022/11/02 09:29:40;;;;;;;10.00;2.30;;;;;;;14.07;67.34;100695.56;1087999;54;20053;-81
2022/11/02 09:30:45;;;;;;;10.88;2.03;;;;;;;14.08;67.16;100691.84;1087954;54;20451;-81
2022/11/02 09:31:50;;;;;;;9.63;2.20;;;;;;;14.17;67.36;100698.16;1088090;54;20026;-80
2022/11/02 09:32:55;;;;;;;7.53;2.40;;;;;;;14.22;67.10;100689.63;1088013;54;20042;-81
2022/11/02 09:33:59;;;;;;;8.85;1.92;;;;;;;14.14;67.52;100693.94;1087811;54;20086;-79
2022/11/02 09:35:05;;;;;;;8.25;1.67;;;;;;;14.31;67.11;100689.56;1087699;54;20086;-80
2022/11/02 09:38:47;;;;;;;10.60;2.22;;;;;;;13.98;67.78;100693.78;1087113;54;20019;-82
2022/11/02 09:40:14;;;;;;;9.32;2.00;;;;;;;13.95;67.65;100699.44;1087345;54;20018;-82
2022/11/02 09:53:09;;;;;;;7.32;2.08;;;;;;;14.32;64.69;100690.41;1087382;54;20077;-81
2022/11/02 09:54:26;;;;;;;8.85;2.17;;;;;;;14.37;64.87;100687.25;1089528;46;20034;-80
2022/11/02 09:55:34;;;;;;;8.68;2.95;;;;;;;14.02;65.09;100689.78;1087727;54;20041;-80
2022/11/02 09:56:38;;;;;;;6.45;1.98;;;;;;;13.98;65.24;100702.66;1087705;54;20042;-83
2022/11/02 09:57:47;;;;;;;9.90;2.30;;;;;;;14.08;64.58;100697.22;1087710;54;20033;-83
2022/11/02 09:59:08;;;;;;;10.40;2.88;;;;;;;14.01;63.94;100698.84;1093588;39;20670;-82
2022/11/02 10:01:05;;;;;;;8.88;1.80;;;;;;;14.05;63.79;100700.22;1087612;54;20142;-81
2022/11/02 10:02:24;;;;;;;11.07;2.25;;;;;;;14.07;63.90;100702.75;1087251;54;20026;-83
2022/11/02 10:03:46;;;;;;;10.65;2.67;;;;;;;13.87;64.14;100698.38;1087297;54;20057;-82
2022/11/02 10:05:29;;;;;;;10.82;2.78;;;;;;;13.81;64.70;100712.38;1087331;54;20031;-81
2022/11/02 10:06:36;;;;;;;16.35;2.60;;;;;;;13.83;64.41;100707.72;1087675;46;20034;-83
2022/11/02 10:08:11;;;;;;;10.38;2.17;;;;;;;13.81;64.21;100715.06;1087158;54;20034;-83
2022/11/02 10:09:26;;;;;;;9.70;2.08;;;;;;;13.96;63.94;100712.72;1089280;46;20039;-81
2022/11/02 10:10:34;;;;;;;6.00;1.77;;;;;;;14.11;63.86;100714.91;1088106;46;20058;-82
2022/11/02 10:11:49;;;;;;;7.65;2.28;;;;;;;14.16;63.52;100713.47;1087346;54;20031;-81
2022/11/02 10:13:05;;;;;;;7.15;2.13;;;;;;;14.18;63.32;100711.44;1087218;54;20038;-80
2022/11/02 10:14:14;;;;;;;7.07;2.05;;;;;;;14.29;63.59;100715.78;1087335;54;20386;-82
2022/11/02 10:15:22;;;;;;;8.48;2.22;;;;;;;14.25;63.67;100716.22;1087434;54;20030;-82
2022/11/02 10:16:31;;;;;;;7.05;2.33;;;;;;;14.12;63.75;100713.91;1088013;46;20022;-80
2022/11/02 10:19:26;;;;;;;11.98;2.10;;;;;;;14.36;63.67;100721.38;1087185;54;20057;-79
2022/11/02 10:24:27;;;;;;;10.95;2.60;;;;;;;14.55;63.33;100711.47;1087546;54;20037;-81
2022/11/02 10:29:41;;;;;;;9.82;2.60;;;;;;;15.11;62.03;100702.16;1087761;54;20039;-84
2022/11/02 12:00:00;;;;;;;8.98;2.55;;;;;;;15.43;52.21;100665.63;1086286;54;20026;-87
2022/11/02 12:01:05;;;;;;;10.15;2.97;;;;;;;15.55;52.42;100659.97;1086962;47;21058;-81
2022/11/02 12:02:41;;;;;;;;;;;;;;;;;;;;;
2022/11/02 12:04:10;;;;;;;;;;;;;;;;;;;;;
2022/11/02 12:05:19;;;;;;;11.80;2.60;;;;;;;15.53;52.90;100662.81;1086746;54;20035;-81
2022/11/02 12:06:30;;;;;;;8.77;2.25;;;;;;;15.78;52.20;100653.97;1086881;54;20096;-81
2022/11/02 12:07:55;;;;;;;7.45;2.60;;;;;;;15.79;51.91;100655.66;1086943;54;20120;-80
2022/11/02 12:45:17;;;;;;;10.45;2.22;;;;;;;16.20;45.92;100609.91;1087459;54;20030;-81
2022/11/02 13:45:44;;;;;;;8.27;1.80;;;;;;;16.20;46.29;100599.13;1087491;54;20034;-83
2022/11/02 13:47:03;;;;;;;7.13;1.88;;;;;;;16.12;46.25;100601.81;1087512;54;20031;-81
2022/11/02 14:03:26;;;;;;;;;;;;;;;;;;;;;
2022/11/02 14:04:44;;;;;;;7.53;2.28;;;;;;;16.12;47.04;100594.56;1087030;54;20039;-84
2022/11/02 14:07:47;;;;;;;8.27;1.80;;;;;;;16.12;47.40;100601.81;1087080;54;20031;-82
2022/11/02 14:08:54;;;;;;;7.57;1.98;;;;;;;16.27;46.89;100596.59;1086850;46;20082;-81
2022/11/02 14:10:21;;;;;;;6.70;1.77;;;;;;;16.25;46.69;100602.16;1087135;46;20041;-79
2022/11/02 14:11:49;;;;;;;7.00;1.70;;;;;;;16.17;46.90;100596.75;1086905;54;20014;-82
2022/11/02 14:57:31;;;;;;;8.85;2.42;;;;;;;16.18;47.46;100574.16;1087050;54;20042;-83
2022/11/02 14:58:50;;;;;;;8.32;1.92;;;;;;;16.11;47.36;100568.59;1087167;54;20042;-80
2022/11/02 15:38:52;;;;;;;;;;;;;;;;;;;;;
2022/11/02 15:58:15;;;;;;;8.02;2.60;;;;;;;15.50;50.96;100551.81;1087282;54;20030;-84
2022/11/02 16:07:08;;;;;;;7.78;2.75;;;;;;;15.32;52.08;100542.00;1086647;54;20082;-87
2022/11/02 16:08:49;;;;;;;;;;;;;;;;;;;;;
2022/11/02 16:11:26;;;;;;;7.20;1.92;;;;;;;15.11;52.92;100545.16;1087994;39;20578;-80
2022/11/02 16:31:21;;;;;;;14.45;7.45;;;;;;;14.59;54.78;100536.13;1087502;46;20038;-80
2022/11/02 16:34:17;;;;;;;15.43;7.38;;;;;;;14.51;54.90;100536.06;1087239;54;20055;-83
2022/11/02 16:37:17;;;;;;;12.00;6.20;;;;;;;14.43;55.17;100531.50;1087228;54;20034;-85
2022/11/02 16:39:49;;;;;;;10.68;6.25;;;;;;;14.40;55.31;100531.78;1086500;54;20027;-80
2022/11/02 16:43:19;;;;;;;10.27;5.60;;;;;;;14.40;55.70;100534.47;1087033;54;20050;-80
2022/11/02 16:44:25;;;;;;;12.15;5.85;;;;;;;14.38;56.04;100531.09;1087206;54;20062;-83
2022/11/02 16:47:20;;;;;;;14.73;6.38;;;;;;;14.08;57.38;100538.59;1086901;54;20102;-83
2022/11/02 16:49:02;;;;;;;13.93;6.10;;;;;;;14.06;57.57;100540.63;1089369;39;20239;-84
2022/11/02 16:50:24;;;;;;;11.63;5.50;;;;;;;14.03;57.29;100538.25;1087778;54;20038;-81
2022/11/02 16:51:28;;;;;;;11.63;5.05;;;;;;;14.08;57.20;100535.91;1087524;54;20033;-82
2022/11/02 16:52:34;;;;;;;9.60;4.50;;;;;;;14.12;57.19;100533.78;1087559;54;20445;-79
2022/11/02 16:53:58;;;;;;;10.10;5.38;;;;;;;14.03;57.80;100541.75;1086776;54;20030;-81
2022/11/02 16:55:57;;;;;;;10.98;5.47;;;;;;;13.95;58.25;100536.31;1087726;54;20023;-85
2022/11/02 16:57:20;;;;;;;13.80;5.75;;;;;;;13.76;58.54;100542.72;1088120;46;20086;-84
2022/11/02 17:02:12;;;;;;;9.27;4.28;;;;;;;13.74;58.50;100536.66;1087432;54;20030;-83
2022/11/02 17:03:20;;;;;;;9.10;4.43;;;;;;;13.73;58.66;100530.44;1087320;54;20026;-86
2022/11/02 17:04:32;;;;;;;10.27;4.82;;;;;;;13.68;58.83;100529.22;1087391;54;20053;-81
2022/11/02 17:05:37;;;;;;;9.18;4.18;;;;;;;13.66;58.97;100526.66;1087384;54;20054;-82
2022/11/02 17:06:45;;;;;;;10.20;4.50;;;;;;;13.69;58.78;100533.59;1087125;54;20046;-84
2022/11/02 17:11:30;;;;;;;12.65;4.80;;;;;;;13.38;60.60;100531.22;1087392;54;20025;-84
2022/11/02 17:12:40;;;;;;;12.23;5.15;;;;;;;13.41;59.99;100522.91;1087271;54;20035;-82
2022/11/02 17:13:50;;;;;;;12.25;4.97;;;;;;;13.40;60.39;100526.59;1087238;54;20515;-82
2022/11/02 17:14:58;;;;;;;11.13;4.85;;;;;;;13.41;59.83;100522.91;1087566;54;20042;-81
2022/11/02 17:16:10;;;;;;;9.13;3.75;;;;;;;13.41;60.03;100525.59;1087546;54;20030;-82
2022/11/02 17:17:39;;;;;;;10.02;4.43;;;;;;;13.40;59.81;100521.22;1087592;54;20026;-83
2022/11/02 17:21:30;;;;;;;8.38;4.00;;;;;;;13.37;60.30;100524.16;1091850;46;20026;-79
2022/11/02 17:22:36;;;;;;;8.90;4.10;;;;;;;13.39;60.05;100514.16;1087343;54;20061;-80
2022/11/02 17:23:54;;;;;;;10.95;3.88;;;;;;;13.41;59.79;100522.91;1087163;54;20038;-82
2022/11/02 17:32:06;;;;;;;8.98;4.40;;;;;;;13.34;60.91;100513.72;1088279;46;20030;-84
2022/11/02 17:33:29;;;;;;;10.02;5.03;;;;;;;13.23;61.79;100506.72;1088022;46;20118;-81
2022/11/02 17:34:31;;;;;;;9.73;4.38;;;;;;;13.25;61.17;100502.88;1087375;54;20037;-81
2022/11/02 17:38:01;;;;;;;11.05;5.60;;;;;;;13.25;61.36;100504.75;1057085;54;52426;-82
2022/11/02 17:43:01;;;;;;;11.20;4.50;;;;;;;13.04;61.80;100504.97;1089151;54;20049;-82
2022/11/02 17:44:38;;;;;;;13.85;5.93;;;;;;;12.95;62.39;100504.06;1089184;54;20030;-83
2022/11/02 17:51:01;;;;;;;10.68;6.15;;;;;;;13.04;62.16;100511.22;1090645;38;20676;-81
2022/11/02 17:52:05;;;;;;;15.23;8.27;;;;;;;12.73;63.52;100505.28;1089203;54;20061;-81
2022/11/02 17:53:18;;;;;;;17.17;7.75;;;;;;;12.62;63.94;100509.00;1089353;54;20030;-82
2022/11/02 17:54:20;;;;;;;15.70;7.95;;;;;;;12.46;64.53;100513.16;1090346;46;20038;-81
2022/11/02 17:55:28;;;;;;;20.25;9.27;;;;;;;12.35;64.74;100507.94;1089634;54;20030;-80
2022/11/02 17:56:32;;;;;;;19.40;8.75;;;;;;;12.17;65.27;100511.38;1089518;54;20015;-82
2022/11/02 17:57:37;;;;;;;17.15;7.82;;;;;;;12.19;65.60;100505.03;1089606;46;20014;-81
2022/11/02 17:59:06;;;;;;;16.33;8.52;;;;;;;12.16;66.13;100508.84;1092470;46;20038;-86
2022/11/02 18:00:26;;;;;;;19.45;8.20;;;;;;;12.20;65.49;100504.88;1089424;54;20053;-82
2022/11/02 18:01:32;;;;;;;13.55;7.45;;;;;;;12.23;65.15;100507.28;1090399;46;20053;-82
2022/11/02 18:02:36;;;;;;;13.57;6.18;;;;;;;12.32;64.99;100501.03;1090884;46;20018;-85
2022/11/02 18:03:46;;;;;;;13.50;7.53;;;;;;;12.29;65.04;100509.38;1089451;54;20018;-82
2022/11/02 18:06:40;;;;;;;13.20;6.65;;;;;;;12.24;65.15;100514.34;1089440;38;20096;-81
2022/11/02 18:07:48;;;;;;;13.73;6.10;;;;;;;12.21;65.21;100522.66;1089377;54;20034;-83
2022/11/02 18:10:45;;;;;;;12.63;6.65;;;;;;;12.13;65.06;100517.16;1089391;54;20050;-81
2022/11/02 18:15:22;;;;;;;13.18;6.25;;;;;;;12.10;65.40;100506.72;1088906;39;21048;-78
2022/11/02 18:16:32;;;;;;;13.63;6.40;;;;;;;12.07;65.24;100507.03;1089522;54;20042;-83
2022/11/02 18:17:48;;;;;;;14.85;5.30;;;;;;;11.99;65.47;100510.41;1089287;54;21228;-82
2022/11/02 18:20:10;;;;;;;16.02;6.38;;;;;;;11.85;65.68;100509.81;1088838;54;21464;-83
2022/11/02 18:21:23;;;;;;;13.55;6.43;;;;;;;11.78;66.24;100516.72;1089368;54;20038;-84
2022/11/02 18:22:24;;;;;;;15.15;6.32;;;;;;;11.68;66.34;100500.69;1089498;54;20046;-81
2022/11/02 18:23:30;;;;;;;14.50;6.53;;;;;;;11.65;66.56;100502.78;1089435;54;20046;-83
2022/11/02 18:24:43;;;;;;;15.30;6.38;;;;;;;11.64;66.88;100503.78;1090605;46;20030;-83
2022/11/02 18:25:49;;;;;;;15.77;6.40;;;;;;;11.66;66.46;100493.78;1089347;54;20038;-81
2022/11/02 18:28:12;;;;;;;16.17;6.80;;;;;;;11.51;67.39;100493.34;1088767;54;20037;-82
2022/11/02 18:29:23;;;;;;;12.57;5.97;;;;;;;11.53;67.22;100499.38;1089346;54;20041;-85
2022/11/02 18:31:25;;;;;;;;;;;;;;;;;;;;;
2022/11/02 18:34:43;;;;;;;;;;;;;;;;;;;;;
2022/11/02 18:38:23;;;;;;;13.60;5.38;;;;;;;11.64;67.09;100488.53;1088331;54;20041;-82
2022/11/02 18:39:30;;;;;;;11.77;4.72;;;;;;;11.72;66.71;100495.88;1089316;54;20754;-81
2022/11/02 18:40:44;;;;;;;9.45;5.00;;;;;;;11.78;66.66;100495.31;1089290;54;20090;-83
2022/11/02 18:43:08;;;;;;;11.05;5.60;;;;;;;11.83;66.37;100498.41;1088761;54;20038;-84
2022/11/02 19:02:14;;;;;;;11.00;6.63;;;;;;;11.62;67.16;100474.44;1087339;54;20030;-85
2022/11/02 20:35:25;;;;;;;19.80;9.23;;;;;;;9.53;75.10;100487.19;1088093;47;20094;-84
2022/11/02 20:41:36;;;;;;;;;;;;;;;;;;;;;
